Akita Airport
RJSK : now visible

Airfield :











YOU CAN JOIN US ON...

 
LOGIN :

Register | Disclaimer

   EN    FR    IT 

 









Legend :    VFR   Marginal VFR   IFR   Intensive IFR   Very Intensive IFR
Visi :
Ceiling :
>= 8 km
>= 3000ft
5 to 8 km
1000 to 3000 ft
1500m to 5 km
500 to 1000 ft
800 to 1500m
200 to 500 ft
< 800m
< 200 ft
Symbols :   Thunderstorms  Fog  Heavy snow  Heavy precipitations  Wind > 20 kt






- Airport Elevation : 313 ft
- IATA code : AXT


RJSK - Akita

CURRENT METAR :
  • 140128Z 29004KT 240V340 4500 SHRA BR FEW000 SCT015 BKN020 03/03 Q1014 RMK 1ST000 3CU015 5CU020 A2997

EXPIRED METARs :
  • 140106Z 14005KT 080V200 3000 SHRA BR FEW000 SCT012 BKN018 03/02 Q1015 RMK 1ST000 3CU012 5CU018 A2998
  • 140014Z 10005KT 080V150 6000 -SHRA FEW001 SCT015 BKN020 04/03 Q1015 RMK 1ST001 3CU015 5CU020 A2999
  • 140000Z 11004KT 4500 SHRA BR FEW001 SCT010 BKN015 03/03 Q1016
  • 132344Z 09004KT 050V120 4500 SHRA BR FEW001 SCT008 BKN010 03/03 Q1016 RMK 1ST001 3ST008 5CU010 A3001
  • 132327Z 08005KT 3000 SHRA BR FEW001 SCT013 BKN017 03/02 Q1016 RMK 1ST001 3CU013 5CU017 A3002
  • 132317Z 10003KT 080V160 6000 SHRA FEW001 SCT015 BKN020 03/02 Q1016 RMK 1ST001 3CU015 5CU020 A3001
  • 132300Z 10006KT 4500 SHRA BR FEW001 SCT015 BKN020 03/02 Q1016

TAF TAF RJSK
Valid from the 14 at 00:00 until the 15 at 06:00 UTC


132314Z 1400/1506 13005KT 8000 -SHRA FEW010 BKN020 BKN030
TEMPO 1400/1406 3000 TSRA BR FEW005 BKN008 BKN020 FEW020CB
BECMG 1404/1406 30018KT
TEMPO 1406/1409 30025G35KT
TEMPO 1409/1421 30020G30KT 3000 -SHSN



MET'MAP, your aeronautical weather chart ! - Copyright ORBIFLY December 2007 - Disclaimer

ORBIFLY MET'MAP TEAM :

Programming & Development : Alexandra Zaïnal
Concept & original design : Baudouin d'Aumeries
Assistance for programming : Marc-Olivier Méhu
Technical & hardware support : Manuel Goepfert

Contact : metmap@orbifly.com




SOURCES & CREDITS :

   NOAA       Earth
Advisory